Encarnación, Paraguay

5:00 AM PYST en Octubre 22, 2014 (GMT -0300)
Liberador Gral D Jose De San M | Change Station
CLOSE
Current Station
Aeropuerto
Location: Posadas,
Altura: 430 ft
Estaciones meteorológicas cercanas

Alt 430 ft 27.39 °S, 55.97 °W | Updated 1 hour ago

Clear
Despejado
66 ° F
Sensación térmica 66 ° F
N
4
Viento Variable Viento desde SE

Hoy
Alta -- | Baja -- ° F
--% Posibilidad de precipitaciones
Ayer
Alta -- | Baja -- ° F
Precip. -- pul
6:00 AM 6:55 PM
Creciente menguante, 3% visible
Presión 30.01 pul
Visibilidad -9999.0 Millas
Nubes
Punto de rocío 50 ° F
Humedad 56%
Precipitaciones 0.00 pul
Espesor de la nieve No disponible.
UV No disponible.
Polen No disponible.
Calidad del aire No disponible.
Flu Activity No disponible.
METAR SARP 220700Z 14003KT CAVOK 19/10 Q1016

More Conditions Fewer Conditions

Presión 30.01 pul
Visibilidad -9999.0 Millas
Nubes
Punto de rocío 50 ° F
Humedad 56%
Precipitaciones 0.00 pul
Espesor de la nieve No disponible.
UV No disponible.
Polen No disponible.
Calidad del aire No disponible.
Flu Activity No disponible.
METAR SARP 220700Z 14003KT CAVOK 19/10 Q1016

More Conditions Fewer Conditions

10-Day Weather Forecast

Almanac

Astronomía

Oct. 22, 2014 Salida Puesta
Hora real 6:00 AM PYST 6:55 PM PYST
Crepúsculo civil 5:36 AM PYST 7:19 PM PYST
Crepúsculo náutico 5:08 AM PYST 7:47 PM PYST
Crepúsculo astronómico 4:39 AM PYST 8:16 PM PYST
Luna 5:09 AM PYST 5:56 PM PYST
Horas de luz 13h 42m
Horas de luz
12h 54m
Tomorrow will be 1m 31s longer.
Creciente menguante, 3% of the Moon is Illuminated
Hoy
Creciente menguante
Oct 23
Nueva
Oct 30
Cuarto creciente
Nov 6
Luna llena
Nov 14
Cuarto menguante

Extremos de ayer

Máximos del país Bajas del país

Community

WunderPhotos

Upload Photos

1,763,889 ¡fotos cargadas!

Nearby

Calidad del aire

Not available.

Grosos de nieve

Not available.

Actividad de terremotos

Ciudad Distance Mag. Tiempo y dato
No hay informes recientes de la actividad sísmica.
Magnitud mínima muestra es 2,5.

Temperaturas de aguas costeras

Lugar Temperatura
Sin partes meteorológicos de las estaciones

Estaciones meteorológicas cercanas